Time;durP1;ratioP1;P1;durP2;ratioP2;P2;SDS_P1;SDS_P2;PMS_P1;PMS_P2;Temp;Humidity;BMP_temperature;BMP_pressure;BME280_temperature;BME280_humidity;BME280_pressure;Samples;Min_cycle;Max_cycle;Signal;HPM_P1;HPM_P2
2023/06/11 00:02:22;;;;;;;;;;;;;;;23.03;48.34;95545.59;10297826;28;1923;-64
2023/06/11 00:07:22;;;;;;;;;;;;;;;23.04;48.49;95552.44;10295787;28;2487;-66
2023/06/11 00:12:22;;;;;;;;;;;;;;;23.05;48.21;95561.16;10294072;28;1927;-66
2023/06/11 00:17:22;;;;;;;;;;;;;;;23.05;48.19;95553.22;10285519;28;2034;-66
2023/06/11 00:22:27;;;;;;;;;;;;;;;23.05;48.32;95547.94;10288015;28;2013;-66
2023/06/11 00:27:27;;;;;;;;;;;;;;;23.06;48.16;95538.94;10302364;28;1922;-65
2023/06/11 00:32:27;;;;;;;;;;;;;;;23.07;48.09;95548.44;10299756;28;1893;-66
2023/06/11 00:37:32;;;;;;;;;;;;;;;23.08;48.00;95540.19;10300408;28;1898;-65
2023/06/11 00:42:33;;;;;;;;;;;;;;;23.08;47.95;95544.72;10298063;28;4702;-66
2023/06/11 00:47:36;;;;;;;;;;;;;;;23.07;47.94;95543.94;10302536;28;2426;-66
2023/06/11 00:52:36;;;;;;;;;;;;;;;23.05;47.90;95547.94;10304128;28;2024;-64
2023/06/11 00:57:40;;;;;;;;;;;;;;;23.04;47.97;95549.03;10304614;28;2016;-65
2023/06/11 01:02:47;;;;;;;;;;;;;;;23.02;48.19;95541.38;10299181;28;1934;-65
2023/06/11 01:07:50;;;;;;;;;;;;;;;23.02;47.84;95546.66;10305747;28;1965;-66
2023/06/11 01:12:50;;;;;;;;;;;;;;;23.01;48.04;95544.31;10287357;28;1983;-65
2023/06/11 01:17:54;;;;;;;;;;;;;;;22.99;48.09;95552.56;10301288;28;2007;-66
2023/06/11 01:22:58;;;;;;;;;;;;;;;22.98;47.87;95561.53;10298842;28;2023;-65
2023/06/11 01:27:58;;;;;;;;;;;;;;;22.99;48.01;95562.34;10315561;28;2004;-65
2023/06/11 01:32:59;;;;;;;;;;;;;;;22.97;47.75;95564.50;10298946;28;2073;-65
2023/06/11 01:37:59;;;;;;;;;;;;;;;22.97;48.00;95564.50;10301335;28;1974;-65
2023/06/11 01:43:00;;;;;;;;;;;;;;;22.96;47.94;95552.34;10298406;28;4707;-65
2023/06/11 01:48:00;;;;;;;;;;;;;;;22.95;48.05;95550.78;10301484;28;1961;-65
2023/06/11 01:53:00;;;;;;;;;;;;;;;22.94;47.71;95559.78;10304565;28;2027;-64
2023/06/11 01:58:01;;;;;;;;;;;;;;;22.93;47.89;95564.28;10305359;28;1931;-65
2023/06/11 02:03:02;;;;;;;;;;;;;;;22.94;47.83;95565.06;10295675;28;1961;-65
2023/06/11 02:08:03;;;;;;;;;;;;;;;22.92;47.71;95570.66;10296670;28;1892;-65
2023/06/11 02:13:03;;;;;;;;;;;;;;;22.92;47.85;95565.34;10298417;28;2071;-64
2023/06/11 02:18:03;;;;;;;;;;;;;;;22.91;47.92;95563.00;10297219;28;1984;-65
2023/06/11 02:23:04;;;;;;;;;;;;;;;22.91;47.62;95570.94;10296881;28;2057;-65
2023/06/11 02:28:05;;;;;;;;;;;;;;;22.92;47.92;95580.44;10302809;28;1950;-65
2023/06/11 02:33:06;;;;;;;;;;;;;;;22.93;47.65;95566.16;10287466;28;2045;-64
2023/06/11 02:38:07;;;;;;;;;;;;;;;22.94;47.54;95573.00;10293715;28;2466;-65
2023/06/11 02:43:07;;;;;;;;;;;;;;;22.94;47.48;95575.63;10293746;28;4620;-65
2023/06/11 02:48:07;;;;;;;;;;;;;;;22.94;47.40;95579.06;10299278;28;2045;-64
2023/06/11 02:53:07;;;;;;;;;;;;;;;22.96;47.44;95576.13;10295370;28;1992;-65
2023/06/11 02:58:08;;;;;;;;;;;;;;;22.96;47.37;95576.13;10299465;28;1973;-66
2023/06/11 03:03:08;;;;;;;;;;;;;;;22.95;47.38;95577.22;10303095;28;1984;-64
2023/06/11 03:08:08;;;;;;;;;;;;;;;22.95;47.59;95577.22;10306006;28;1937;-65
2023/06/11 03:13:09;;;;;;;;;;;;;;;22.94;47.36;95587.00;10295902;28;1985;-64
2023/06/11 03:18:09;;;;;;;;;;;;;;;22.91;47.64;95590.25;10301177;28;2128;-65
2023/06/11 03:23:10;;;;;;;;;;;;;;;22.92;47.34;95585.72;10303753;28;1974;-64
2023/06/11 03:28:10;;;;;;;;;;;;;;;22.90;47.66;95591.31;10311663;28;1500;-65
2023/06/11 03:33:11;;;;;;;;;;;;;;;22.90;47.43;95593.16;10315247;28;1546;-65
2023/06/11 03:38:11;;;;;;;;;;;;;;;22.90;47.20;95599.22;10311853;28;2617;-64
2023/06/11 03:43:11;;;;;;;;;;;;;;;22.90;47.42;95590.50;10295120;28;2014;-64
2023/06/11 03:48:11;;;;;;;;;;;;;;;22.89;47.32;95589.75;10297466;28;2005;-65
2023/06/11 03:53:12;;;;;;;;;;;;;;;22.90;47.31;95591.31;10293455;28;1948;-64
2023/06/11 03:58:12;;;;;;;;;;;;;;;22.90;47.50;95599.22;10298802;28;1919;-65
2023/06/11 04:03:12;;;;;;;;;;;;;;;22.91;47.27;95603.47;10297964;28;2012;-65
2023/06/11 04:08:12;;;;;;;;;;;;;;;22.90;47.56;95601.09;10300489;28;2005;-65
2023/06/11 04:13:13;;;;;;;;;;;;;;;22.90;47.28;95606.38;10298207;28;2041;-65
2023/06/11 04:18:13;;;;;;;;;;;;;;;22.89;47.38;95610.88;10293035;28;1953;-65
2023/06/11 04:23:13;;;;;;;;;;;;;;;22.89;47.53;95615.38;10296611;28;2184;-65
2023/06/11 04:28:15;;;;;;;;;;;;;;;22.90;47.37;95616.94;10298804;28;2116;-63
2023/06/11 04:33:16;;;;;;;;;;;;;;;22.90;47.49;95611.66;10297834;28;2354;-65
2023/06/11 04:38:17;;;;;;;;;;;;;;;22.90;47.38;95611.66;10294974;28;1933;-65
2023/06/11 04:43:22;;;;;;;;;;;;;;;22.90;47.39;95611.66;10292151;28;4811;-65
2023/06/11 04:48:22;;;;;;;;;;;;;;;22.90;47.35;95623.03;10292525;28;1954;-64
2023/06/11 04:53:23;;;;;;;;;;;;;;;22.91;47.40;95621.97;10298095;28;2191;-65
2023/06/11 04:58:26;;;;;;;;;;;;;;;22.92;47.42;95622.72;10293746;28;2020;-65
2023/06/11 05:03:31;;;;;;;;;;;;;;;22.91;47.44;95615.88;10312424;28;2065;-65
2023/06/11 05:08:32;;;;;;;;;;;;;;;22.91;47.49;95621.16;10289014;28;2002;-65
2023/06/11 05:13:32;;;;;;;;;;;;;;;22.90;47.84;95628.31;10279848;28;1993;-64
2023/06/11 05:18:32;;;;;;;;;;;;;;;22.90;47.95;95627.50;10293471;28;2032;-65
2023/06/11 05:23:33;;;;;;;;;;;;;;;22.91;47.87;95631.75;10297374;28;2049;-65
2023/06/11 05:28:33;;;;;;;;;;;;;;;22.92;47.71;95635.94;10303852;28;2403;-65
2023/06/11 05:33:33;;;;;;;;;;;;;;;22.92;47.50;95638.56;10288704;28;1943;-65
2023/06/11 05:38:34;;;;;;;;;;;;;;;22.93;47.83;95632.22;10300571;28;2057;-65
2023/06/11 05:43:35;;;;;;;;;;;;;;;22.93;47.64;95629.59;10300086;28;4759;-64
2023/06/11 05:48:35;;;;;;;;;;;;;;;22.94;47.70;95633.78;10297299;28;1969;-65
2023/06/11 05:53:36;;;;;;;;;;;;;;;22.94;47.71;95626.66;10301849;28;2078;-65
2023/06/11 05:58:36;;;;;;;;;;;;;;;22.93;47.47;95634.88;10300726;28;1918;-64
2023/06/11 06:03:37;;;;;;;;;;;;;;;22.90;47.60;95632.81;10300493;28;2005;-65
2023/06/11 06:08:37;;;;;;;;;;;;;;;22.90;47.44;95638.09;10298318;28;1941;-65
2023/06/11 06:13:37;;;;;;;;;;;;;;;22.89;47.49;95632.03;10302952;28;1995;-65
2023/06/11 06:18:38;;;;;;;;;;;;;;;22.89;47.46;95637.31;10292742;28;2104;-64
2023/06/11 06:23:39;;;;;;;;;;;;;;;22.91;47.36;95647.59;10299894;28;2430;-65
2023/06/11 06:28:39;;;;;;;;;;;;;;;22.87;47.43;95643.97;10299850;28;1934;-65
2023/06/11 06:33:39;;;;;;;;;;;;;;;22.91;47.59;95651.03;10287432;28;1977;-64
2023/06/11 06:38:40;;;;;;;;;;;;;;;22.91;47.66;95645.75;10292129;28;2028;-64
2023/06/11 06:43:40;;;;;;;;;;;;;;;22.92;47.70;95646.50;10293913;28;4794;-63
2023/06/11 06:48:40;;;;;;;;;;;;;;;22.92;47.34;95651.78;10299381;28;2023;-64
2023/06/11 06:53:41;;;;;;;;;;;;;;;22.92;47.25;95652.59;10291103;28;1889;-64
2023/06/11 06:58:41;;;;;;;;;;;;;;;22.92;47.40;95657.09;10301223;28;2113;-64
2023/06/11 07:03:42;;;;;;;;;;;;;;;22.93;47.12;95656.81;10295541;28;1930;-64
2023/06/11 07:08:42;;;;;;;;;;;;;;;22.94;47.11;95657.56;10296125;28;1942;-64
2023/06/11 07:13:42;;;;;;;;;;;;;;;22.95;47.19;95656.50;10300887;28;1947;-64
2023/06/11 07:18:43;;;;;;;;;;;;;;;22.94;47.34;95655.72;10302038;28;2219;-64
2023/06/11 07:23:43;;;;;;;;;;;;;;;22.96;47.21;95655.44;10287260;28;2109;-64
2023/06/11 07:28:43;;;;;;;;;;;;;;;22.96;47.25;95653.56;10289454;28;1868;-64
2023/06/11 07:33:44;;;;;;;;;;;;;;;22.93;46.90;95653.38;10298578;28;1882;-64
2023/06/11 07:38:44;;;;;;;;;;;;;;;22.92;46.84;95663.16;10302970;28;1877;-64
2023/06/11 07:43:45;;;;;;;;;;;;;;;22.96;47.11;95668.63;10302391;28;4797;-64
2023/06/11 07:48:45;;;;;;;;;;;;;;;22.96;46.81;95664.16;10304721;28;2375;-64
2023/06/11 07:53:45;;;;;;;;;;;;;;;22.96;46.77;95658.06;10305024;28;1919;-65
2023/06/11 07:58:46;;;;;;;;;;;;;;;22.95;46.66;95662.59;10299866;28;1936;-64
2023/06/11 08:03:46;;;;;;;;;;;;;;;22.94;46.47;95661.00;10307036;28;1919;-64
2023/06/11 08:08:47;;;;;;;;;;;;;;;22.96;46.63;95652.78;10289481;28;1897;-64
2023/06/11 08:13:47;;;;;;;;;;;;;;;22.97;46.45;95657.00;10295505;28;1890;-64
2023/06/11 08:18:48;;;;;;;;;;;;;;;22.95;46.31;95653.88;10302329;28;2253;-63
2023/06/11 08:23:48;;;;;;;;;;;;;;;22.95;46.54;95651.22;10306791;28;2198;-63
2023/06/11 08:28:48;;;;;;;;;;;;;;;22.96;46.31;95655.44;10302101;28;1930;-62
2023/06/11 08:33:49;;;;;;;;;;;;;;;22.97;46.62;95655.16;10298718;28;1858;-65
2023/06/11 08:38:50;;;;;;;;;;;;;;;23.00;46.40;95659.09;10299004;28;2140;-65
2023/06/11 08:43:50;;;;;;;;;;;;;;;23.03;46.38;95663.78;10296291;28;4707;-64
2023/06/11 08:48:57;;;;;;;;;;;;;;;23.04;46.44;95650.25;10300863;28;2067;-63
2023/06/11 08:53:58;;;;;;;;;;;;;;;23.07;46.21;95648.91;10298284;28;1994;-65
2023/06/11 08:58:59;;;;;;;;;;;;;;;23.07;46.21;95652.34;10299445;28;1864;-65
2023/06/11 09:04:00;;;;;;;;;;;;;;;23.07;46.14;95652.34;10308340;28;1950;-65
2023/06/11 09:09:01;;;;;;;;;;;;;;;23.10;46.26;95658.91;10304272;28;2003;-65
2023/06/11 09:14:01;;;;;;;;;;;;;;;23.12;46.13;95654.88;10306271;28;2477;-65
2023/06/11 09:19:01;;;;;;;;;;;;;;;23.13;46.24;95653.81;10303650;28;1773;-63
2023/06/11 09:24:05;;;;;;;;;;;;;;;23.16;45.93;95655.09;10307921;28;1981;-63
2023/06/11 09:29:05;;;;;;;;;;;;;;;23.17;45.88;95654.00;10305748;28;2000;-63
2023/06/11 09:34:09;;;;;;;;;;;;;;;23.19;45.86;95660.56;10306788;28;1901;-62
2023/06/11 09:39:12;;;;;;;;;;;;;;;23.20;45.79;95656.06;10308396;28;1867;-63
2023/06/11 09:44:12;;;;;;;;;;;;;;;23.21;46.08;95661.06;10292029;28;4843;-62
2023/06/11 09:49:13;;;;;;;;;;;;;;;23.23;45.87;95671.34;10298778;28;1996;-62
2023/06/11 09:54:13;;;;;;;;;;;;;;;23.22;45.37;95670.59;10307568;28;1943;-62
2023/06/11 09:59:13;;;;;;;;;;;;;;;23.23;45.62;95677.41;10286898;28;1908;-62
2023/06/11 10:04:14;;;;;;;;;;;;;;;23.25;45.47;95677.13;10286682;28;1914;-61
2023/06/11 10:09:15;;;;;;;;;;;;;;;23.26;45.65;95668.91;10304638;28;2356;-61
2023/06/11 10:14:20;;;;;;;;;;;;;;;23.27;45.55;95670.47;10286883;28;1866;-62
2023/06/11 10:19:21;;;;;;;;;;;;;;;23.29;45.84;95667.53;10294141;28;1908;-63
2023/06/11 10:24:24;;;;;;;;;;;;;;;23.29;45.86;95668.31;10301138;28;1952;-62
2023/06/11 10:29:25;;;;;;;;;;;;;;;23.29;45.37;95676.25;10310209;28;1847;-63
2023/06/11 10:34:25;;;;;;;;;;;;;;;23.31;45.67;95678.59;10294430;28;1925;-62
2023/06/11 10:39:26;;;;;;;;;;;;;;;23.33;45.61;95673.84;10306255;28;1906;-64
2023/06/11 10:44:26;;;;;;;;;;;;;;;;;;10295992;28;4655;-63
2023/06/11 10:49:26;;;;;;;;;;;;;;;23.36;45.74;95667.97;10308663;28;1887;-63
2023/06/11 10:54:27;;;;;;;;;;;;;;;23.37;45.76;95669.53;10306574;28;1890;-65
2023/06/11 10:59:28;;;;;;;;;;;;;;;23.37;45.59;95665.03;10302361;28;1918;-64
2023/06/11 11:04:28;;;;;;;;;;;;;;;23.38;45.25;95669.25;10323665;28;1918;-65
2023/06/11 11:09:29;;;;;;;;;;;;;;;23.41;44.67;95658.06;10298441;28;1950;-64
2023/06/11 11:14:29;;;;;;;;;;;;;;;23.42;44.42;95666.78;10305893;28;1910;-64
2023/06/11 11:19:30;;;;;;;;;;;;;;;23.40;44.71;95666.31;10300272;28;1895;-66
2023/06/11 11:24:33;;;;;;;;;;;;;;;23.39;44.67;95651.50;10303643;28;1914;-68
2023/06/11 11:29:33;;;;;;;;;;;;;;;23.39;44.42;95651.50;10289080;28;1923;-69
2023/06/11 11:34:37;;;;;;;;;;;;;;;23.35;43.49;95655.81;10301013;28;1975;-64
2023/06/11 11:39:38;;;;;;;;;;;;;;;23.34;43.49;95648.97;10285232;28;1927;-64
2023/06/11 11:44:41;;;;;;;;;;;;;;;23.29;42.35;95652.44;10287254;28;4608;-65
2023/06/11 11:49:44;;;;;;;;;;;;;;;23.31;43.10;95654.78;10301525;28;1818;-62
2023/06/11 11:54:44;;;;;;;;;;;;;;;23.33;42.87;95647.38;10299619;28;1880;-62
2023/06/11 11:59:45;;;;;;;;;;;;;;;23.36;42.19;95646.81;10304256;28;1846;-60
2023/06/11 12:04:46;;;;;;;;;;;;;;;23.35;42.25;95646.03;10302280;28;1891;-63
2023/06/11 12:09:46;;;;;;;;;;;;;;;23.37;42.79;95632.50;10292828;28;1923;-63
2023/06/11 12:14:47;;;;;;;;;;;;;;;23.38;43.47;95634.06;10297158;28;1862;-63
2023/06/11 12:19:47;;;;;;;;;;;;;;;23.40;43.64;95631.91;10299999;28;2025;-62
2023/06/11 12:24:47;;;;;;;;;;;;;;;23.41;43.75;95625.56;10302198;28;2058;-64
2023/06/11 12:29:53;;;;;;;;;;;;;;;23.42;43.94;95633.19;10299722;28;1923;-64
2023/06/11 12:34:53;;;;;;;;;;;;;;;23.44;43.77;95627.59;10306185;28;1896;-62
2023/06/11 12:39:53;;;;;;;;;;;;;;;23.45;43.84;95619.38;10310645;28;4615;-63
2023/06/11 12:44:53;;;;;;;;;;;;;;;23.46;43.91;95625.44;10307851;28;1891;-63
2023/06/11 12:49:54;;;;;;;;;;;;;;;23.48;44.00;95617.22;10306159;28;1966;-62
2023/06/11 12:54:54;;;;;;;;;;;;;;;23.48;44.17;95628.59;10304153;28;1926;-62
2023/06/11 12:59:54;;;;;;;;;;;;;;;23.49;44.20;95614.28;10305755;28;2269;-63
2023/06/11 13:04:55;;;;;;;;;;;;;;;23.49;44.01;95613.50;10304242;28;2051;-63
2023/06/11 13:09:56;;;;;;;;;;;;;;;23.48;43.85;95604.78;10295625;28;1966;-62
2023/06/11 13:14:56;;;;;;;;;;;;;;;23.49;43.99;95609.00;10302314;28;1898;-62
2023/06/11 13:19:57;;;;;;;;;;;;;;;23.51;44.09;95601.56;10306727;28;2007;-61
2023/06/11 13:24:57;;;;;;;;;;;;;;;23.51;44.10;95606.84;10307193;28;1898;-64
2023/06/11 13:29:59;;;;;;;;;;;;;;;23.51;43.79;95603.41;10305269;28;1915;-63
2023/06/11 13:34:59;;;;;;;;;;;;;;;23.52;43.90;95595.16;10309607;28;1886;-63
2023/06/11 13:39:59;;;;;;;;;;;;;;;23.52;43.81;95592.53;10305391;28;4638;-64
2023/06/11 13:45:03;;;;;;;;;;;;;;;23.50;44.15;95593.88;10307410;28;1902;-64
2023/06/11 13:50:03;;;;;;;;;;;;;;;23.52;43.62;95600.47;10304935;28;1998;-63
2023/06/11 13:55:04;;;;;;;;;;;;;;;23.52;43.91;95597.81;10302533;28;1929;-61
2023/06/11 14:00:05;;;;;;;;;;;;;;;23.52;43.84;95589.09;10300268;28;1934;-63
2023/06/11 14:05:05;;;;;;;;;;;;;;;23.54;43.72;95589.56;10300153;28;1906;-63
2023/06/11 14:10:06;;;;;;;;;;;;;;;23.53;43.40;95583.53;10300848;28;1914;-63
2023/06/11 14:15:07;;;;;;;;;;;;;;;23.52;43.37;95581.94;10271152;28;1906;-63
2023/06/11 14:20:07;;;;;;;;;;;;;;;23.51;43.44;95579.59;10305455;28;1896;-63
2023/06/11 14:25:08;;;;;;;;;;;;;;;23.52;43.32;95571.34;10301607;28;2048;-63
2023/06/11 14:30:08;;;;;;;;;;;;;;;23.52;43.37;95566.06;10303530;28;1892;-63
2023/06/11 14:35:08;;;;;;;;;;;;;;;23.53;43.38;95566.84;10306281;28;2001;-63
2023/06/11 14:40:08;;;;;;;;;;;;;;;23.53;43.12;95556.28;10306085;28;4600;-63
2023/06/11 14:45:09;;;;;;;;;;;;;;;23.54;43.41;95555.19;10303180;28;1942;-63
2023/06/11 14:50:09;;;;;;;;;;;;;;;23.55;43.43;95549.59;10301691;28;2316;-61
2023/06/11 14:55:10;;;;;;;;;;;;;;;23.54;43.41;95542.75;10305199;28;1972;-63
2023/06/11 15:00:10;;;;;;;;;;;;;;;23.54;43.30;95542.75;10303388;28;1890;-62
2023/06/11 15:05:11;;;;;;;;;;;;;;;23.54;43.64;95542.75;10294675;28;1901;-62
2023/06/11 15:10:11;;;;;;;;;;;;;;;23.54;43.34;95540.09;10300549;28;1960;-62
2023/06/11 15:15:11;;;;;;;;;;;;;;;23.54;43.13;95536.66;10302608;28;1862;-61
2023/06/11 15:20:12;;;;;;;;;;;;;;;23.56;43.15;95534.50;10299668;28;2063;-62
2023/06/11 15:25:12;;;;;;;;;;;;;;;23.54;43.20;95524.22;10309614;28;1934;-62
2023/06/11 15:30:12;;;;;;;;;;;;;;;23.54;43.18;95521.56;10297410;28;1896;-63
2023/06/11 15:35:14;;;;;;;;;;;;;;;23.55;43.44;95527.66;10299082;28;2007;-62
2023/06/11 15:40:14;;;;;;;;;;;;;;;23.57;43.10;95521.00;10289556;28;4636;-65
2023/06/11 15:45:14;;;;;;;;;;;;;;;23.56;43.40;95524.69;10298768;28;1991;-63
2023/06/11 15:50:15;;;;;;;;;;;;;;;23.58;43.59;95513.81;10295899;28;2205;-63
2023/06/11 15:55:15;;;;;;;;;;;;;;;23.59;43.98;95518.81;10285533;28;1826;-63
2023/06/11 16:00:15;;;;;;;;;;;;;;;23.61;43.79;95519.31;10294247;28;1921;-66
2023/06/11 16:05:15;;;;;;;;;;;;;;;23.62;43.95;95512.16;10294979;28;1982;-65
2023/06/11 16:10:16;;;;;;;;;;;;;;;23.63;44.17;95514.50;10292868;28;1862;-66
2023/06/11 16:15:16;;;;;;;;;;;;;;;23.66;44.35;95518.44;10303636;28;1980;-69
2023/06/11 16:20:17;;;;;;;;;;;;;;;23.63;44.53;95519.78;10293144;28;1907;-69
2023/06/11 16:25:19;;;;;;;;;;;;;;;23.70;44.68;95524.69;10297571;28;1948;-65
2023/06/11 16:30:19;;;;;;;;;;;;;;;23.71;44.67;95521.72;10301200;28;1852;-63
2023/06/11 16:35:20;;;;;;;;;;;;;;;23.66;44.49;95521.84;10302240;28;1970;-64
2023/06/11 16:40:20;;;;;;;;;;;;;;;23.70;44.29;95519.41;10295612;28;4678;-63
2023/06/11 16:45:20;;;;;;;;;;;;;;;23.71;44.54;95526.22;10308427;28;2446;-63
2023/06/11 16:50:21;;;;;;;;;;;;;;;23.69;44.34;95523.09;10297436;28;1807;-63
2023/06/11 16:55:21;;;;;;;;;;;;;;;23.71;44.68;95528.88;10296707;28;1855;-63
2023/06/11 17:00:21;;;;;;;;;;;;;;;23.69;44.21;95539.78;10286206;28;1970;-64
2023/06/11 17:05:22;;;;;;;;;;;;;;;23.70;44.28;95536.03;10300398;28;2014;-64
2023/06/11 17:10:22;;;;;;;;;;;;;;;23.69;44.28;95528.41;10301780;28;1884;-64
2023/06/11 17:15:23;;;;;;;;;;;;;;;23.69;44.17;95523.09;10297260;28;1895;-63
2023/06/11 17:20:23;;;;;;;;;;;;;;;23.69;44.41;95531.03;10305125;28;1928;-64
2023/06/11 17:25:25;;;;;;;;;;;;;;;23.70;44.29;95524.69;10306544;28;1914;-63
2023/06/11 17:30:25;;;;;;;;;;;;;;;23.70;44.12;95525.44;10305872;28;1878;-64
2023/06/11 17:35:26;;;;;;;;;;;;;;;23.71;44.46;95531.53;10308414;28;1939;-65
2023/06/11 17:40:27;;;;;;;;;;;;;;;23.70;44.51;95529.97;10306433;28;4595;-64
2023/06/11 17:45:28;;;;;;;;;;;;;;;23.70;44.51;95529.97;10305585;28;1910;-65
2023/06/11 17:50:28;;;;;;;;;;;;;;;23.69;44.26;95533.69;10301690;28;2034;-65
2023/06/11 17:55:29;;;;;;;;;;;;;;;23.72;44.10;95533.88;10299557;28;1967;-62
2023/06/11 18:00:29;;;;;;;;;;;;;;;23.71;44.25;95532.31;10305202;28;1830;-63
2023/06/11 18:05:30;;;;;;;;;;;;;;;23.72;44.68;95533.88;10302140;28;1958;-63
2023/06/11 18:10:30;;;;;;;;;;;;;;;23.73;44.62;95535.44;10305911;28;2062;-62
2023/06/11 18:15:30;;;;;;;;;;;;;;;23.71;44.27;95542.91;10289372;28;1854;-63
2023/06/11 18:20:31;;;;;;;;;;;;;;;23.71;44.50;95531.53;10315460;28;1804;-62
2023/06/11 18:25:31;;;;;;;;;;;;;;;23.72;44.39;95533.88;10306859;28;1944;-62
2023/06/11 18:30:31;;;;;;;;;;;;;;;23.72;44.51;95539.16;10301460;28;2220;-62
2023/06/11 18:35:32;;;;;;;;;;;;;;;23.73;44.46;95529.38;10304545;28;2339;-61
2023/06/11 18:40:32;;;;;;;;;;;;;;;23.72;44.51;95531.22;10303360;28;4726;-60
2023/06/11 18:45:32;;;;;;;;;;;;;;;23.72;44.34;95536.50;10290729;28;1916;-61
2023/06/11 18:50:33;;;;;;;;;;;;;;;23.73;44.26;95529.38;10287374;28;2093;-61
2023/06/11 18:55:33;;;;;;;;;;;;;;;23.73;44.42;95539.94;10306873;28;1954;-61
2023/06/11 19:00:35;;;;;;;;;;;;;;;23.73;44.55;95537.31;10306295;28;1906;-63
2023/06/11 19:05:35;;;;;;;;;;;;;;;23.73;44.42;95539.94;10294310;28;1962;-69
2023/06/11 19:10:36;;;;;;;;;;;;;;;23.73;44.18;95540.75;10301423;28;1898;-62
2023/06/11 19:15:36;;;;;;;;;;;;;;;23.87;44.11;95538.84;10306247;28;1937;-63
2023/06/11 19:20:38;;;;;;;;;;;;;;;24.01;44.23;95536.13;10309968;28;1866;-62
2023/06/11 19:25:38;;;;;;;;;;;;;;;24.13;43.95;95545.13;10303825;28;1950;-64
2023/06/11 19:30:38;;;;;;;;;;;;;;;24.11;43.67;95547.31;10299498;28;2017;-64
2023/06/11 19:35:39;;;;;;;;;;;;;;;24.08;43.65;95547.91;10298182;28;2941;-64
2023/06/11 19:40:39;;;;;;;;;;;;;;;24.09;43.86;95546.06;10304167;28;4734;-64
2023/06/11 19:45:39;;;;;;;;;;;;;;;24.06;43.66;95550.09;10297236;28;1952;-64
2023/06/11 19:50:39;;;;;;;;;;;;;;;24.04;43.95;95554.91;10304297;28;1981;-63
2023/06/11 19:55:40;;;;;;;;;;;;;;;24.01;43.94;95558.09;10301649;28;2285;-63
2023/06/11 20:00:40;;;;;;;;;;;;;;;23.99;43.90;95565.56;10300337;28;1902;-64
2023/06/11 20:05:40;;;;;;;;;;;;;;;23.96;43.67;95568.81;10302185;28;1899;-64
2023/06/11 20:10:41;;;;;;;;;;;;;;;23.94;43.83;95567.53;10302418;28;1971;-63
2023/06/11 20:15:41;;;;;;;;;;;;;;;23.91;43.71;95582.16;10304578;28;1889;-63
2023/06/11 20:20:41;;;;;;;;;;;;;;;23.90;43.92;95580.59;10295796;28;1902;-63
2023/06/11 20:25:42;;;;;;;;;;;;;;;23.88;43.77;95587.28;10296616;28;2005;-64
2023/06/11 20:30:42;;;;;;;;;;;;;;;23.86;43.58;95579.63;10297120;28;2253;-64
2023/06/11 20:35:43;;;;;;;;;;;;;;;23.85;43.72;95580.69;10301042;28;1916;-64
2023/06/11 20:40:45;;;;;;;;;;;;;;;23.83;43.87;95584.72;10318075;28;4734;-64
2023/06/11 20:45:45;;;;;;;;;;;;;;;23.81;43.74;95581.59;10305139;28;1948;-64
2023/06/11 20:50:45;;;;;;;;;;;;;;;23.82;43.87;95594.53;10305123;28;1875;-64
2023/06/11 20:55:45;;;;;;;;;;;;;;;23.82;44.00;95589.22;10312958;28;1859;-64
2023/06/11 21:00:46;;;;;;;;;;;;;;;23.79;43.97;95589.84;10306654;28;1465;-64
2023/06/11 21:05:49;;;;;;;;;;;;;;;23.80;43.91;95583.44;10314270;28;1909;-65
2023/06/11 21:10:50;;;;;;;;;;;;;;;23.80;43.98;95594.03;10311596;28;1888;-65
2023/06/11 21:15:50;;;;;;;;;;;;;;;23.78;44.08;95593.56;10308077;28;1903;-65
2023/06/11 21:20:50;;;;;;;;;;;;;;;23.78;43.94;95588.25;10308760;28;1927;-65
2023/06/11 21:25:51;;;;;;;;;;;;;;;23.78;44.07;95590.16;10310611;28;2233;-65
2023/06/11 21:30:51;;;;;;;;;;;;;;;23.77;43.96;95586.72;10306486;28;1879;-65
2023/06/11 21:35:51;;;;;;;;;;;;;;;23.75;43.68;95580.94;10305946;28;1848;-65
2023/06/11 21:40:51;;;;;;;;;;;;;;;23.74;43.79;95581.22;10305651;28;4722;-64
2023/06/11 21:45:52;;;;;;;;;;;;;;;23.75;43.87;95582.78;10305421;28;1913;-65
2023/06/11 21:50:52;;;;;;;;;;;;;;;23.73;43.69;95580.44;10305822;28;1832;-65
2023/06/11 21:55:52;;;;;;;;;;;;;;;23.72;43.79;95583.38;10303631;28;1871;-65
2023/06/11 22:00:52;;;;;;;;;;;;;;;23.71;43.55;95585.25;10307076;28;1963;-64
2023/06/11 22:05:58;;;;;;;;;;;;;;;23.73;43.85;95587.59;10307389;28;1935;-65
2023/06/11 22:10:58;;;;;;;;;;;;;;;23.70;43.57;95581.03;10308498;28;2112;-65
2023/06/11 22:15:59;;;;;;;;;;;;;;;23.71;43.64;95587.09;10308736;28;1893;-65
2023/06/11 22:20:59;;;;;;;;;;;;;;;23.70;43.65;95583.66;10307091;28;2694;-61
2023/06/11 22:26:00;;;;;;;;;;;;;;;23.69;43.44;95584.75;10306515;28;1919;-65
2023/06/11 22:31:00;;;;;;;;;;;;;;;23.68;43.77;95583.19;10305120;28;1875;-64
2023/06/11 22:36:00;;;;;;;;;;;;;;;23.68;43.58;95583.19;10301296;28;1919;-65
2023/06/11 22:41:00;;;;;;;;;;;;;;;23.68;43.52;95569.94;10303048;28;4671;-65
2023/06/11 22:46:01;;;;;;;;;;;;;;;23.68;43.56;95574.47;10308423;28;1895;-65
2023/06/11 22:51:01;;;;;;;;;;;;;;;23.68;43.66;95569.94;10307315;28;1885;-64
2023/06/11 22:56:02;;;;;;;;;;;;;;;23.67;43.71;95563.09;10305540;28;1918;-64
2023/06/11 23:01:02;;;;;;;;;;;;;;;23.65;43.46;95575.84;10300208;28;1884;-65
2023/06/11 23:06:02;;;;;;;;;;;;;;;23.65;43.58;95575.06;10303121;28;1952;-63
2023/06/11 23:11:03;;;;;;;;;;;;;;;23.66;43.45;95568.69;10304983;28;2077;-64
2023/06/11 23:16:03;;;;;;;;;;;;;;;23.65;43.11;95565.28;10295639;28;2324;-64
2023/06/11 23:21:03;;;;;;;;;;;;;;;23.64;43.46;95561.03;10303333;28;1847;-64
2023/06/11 23:26:07;;;;;;;;;;;;;;;23.63;43.14;95562.13;10300457;28;1914;-64
2023/06/11 23:31:07;;;;;;;;;;;;;;;23.63;43.19;95548.91;10309882;28;1843;-64
2023/06/11 23:36:08;;;;;;;;;;;;;;;23.64;43.01;95557.63;10287788;28;1915;-64
2023/06/11 23:41:08;;;;;;;;;;;;;;;23.62;42.92;95539.38;10301628;28;4651;-63
2023/06/11 23:46:11;;;;;;;;;;;;;;;23.62;43.35;95546.56;10305238;28;1835;-64
2023/06/11 23:51:11;;;;;;;;;;;;;;;23.61;42.95;95543.13;10301675;28;2089;-64
2023/06/11 23:56:11;;;;;;;;;;;;;;;23.61;42.95;95532.53;10302478;28;2183;-64
